Time;durP1;ratioP1;P1;durP2;ratioP2;P2;SDS_P1;SDS_P2;PMS_P1;PMS_P2;Temp;Humidity;BMP_temperature;BMP_pressure;BME280_temperature;BME280_humidity;BME280_pressure;Samples;Min_cycle;Max_cycle;Signal;HPM_P1;HPM_P2
2021/10/23 00:00:22;;;;;;;1.80;1.00;;;;;;;7.04;49.45;96605.27;115589;1198;24571;-88
2021/10/23 00:03:07;;;;;;;5.70;1.40;;;;;;;7.06;49.82;96611.41;115610;1198;25047;-88
2021/10/23 00:05:35;;;;;;;3.10;1.10;;;;;;;7.07;49.76;96615.00;115446;1199;25506;-88
2021/10/23 00:08:04;;;;;;;3.00;1.20;;;;;;;7.10;49.83;96621.76;115608;1198;26400;-88
2021/10/23 00:10:32;;;;;;;1.90;1.00;;;;;;;7.11;49.70;96625.45;115559;1199;41860;-87
2021/10/23 00:13:01;;;;;;;2.00;1.10;;;;;;;7.12;49.93;96621.49;115565;1192;27470;-87
2021/10/23 00:15:29;;;;;;;3.00;1.40;;;;;;;7.10;50.18;96620.13;115368;1184;25082;-88
2021/10/23 00:17:58;;;;;;;1.40;0.70;;;;;;;7.10;50.23;96629.98;115597;1198;26186;-88
2021/10/23 00:20:26;;;;;;;2.70;1.20;;;;;;;7.10;50.23;96631.45;115612;1198;27930;-88
2021/10/23 00:22:55;;;;;;;3.70;1.20;;;;;;;7.10;50.28;96632.51;115593;1199;26516;-89
2021/10/23 00:25:23;;;;;;;2.70;1.20;;;;;;;7.07;50.39;96634.08;115543;1198;35141;-89
2021/10/23 00:27:54;;;;;;;1.60;1.00;;;;;;;7.04;50.49;96642.81;115593;1198;26061;-88
2021/10/23 00:30:23;;;;;;;1.70;0.80;;;;;;;7.02;50.54;96647.16;115556;1198;29287;-88
2021/10/23 00:32:51;;;;;;;2.60;1.20;;;;;;;7.02;50.77;96643.57;115490;1193;25189;-89
2021/10/23 00:35:20;;;;;;;3.00;0.90;;;;;;;7.02;50.92;96646.00;115444;1199;27751;-86
2021/10/23 00:37:48;;;;;;;3.10;1.20;;;;;;;6.99;51.07;96642.77;115491;1199;28345;-89
2021/10/23 00:40:16;;;;;;;2.30;1.10;;;;;;;6.96;50.93;96640.02;115581;1198;30545;-88
2021/10/23 00:42:44;;;;;;;1.60;0.80;;;;;;;6.90;51.17;96639.50;115526;1198;25000;-89
2021/10/23 00:45:12;;;;;;;6.60;1.40;;;;;;;6.91;51.48;96638.81;115621;1192;24910;-87
2021/10/23 00:47:40;;;;;;;3.20;1.10;;;;;;;6.92;51.61;96642.27;115632;1198;25648;-89
2021/10/23 00:50:09;;;;;;;2.70;1.00;;;;;;;6.92;51.58;96642.27;115450;1199;25673;-88
2021/10/23 00:52:37;;;;;;;4.30;1.00;;;;;;;6.97;51.72;96644.66;115596;1199;26006;-88
2021/10/23 00:55:08;;;;;;;1.80;1.00;;;;;;;7.03;51.47;96653.08;115592;1193;26269;-88
2021/10/23 00:57:38;;;;;;;3.20;1.10;;;;;;;7.07;51.64;96652.64;115594;1198;25032;-88
2021/10/23 01:00:09;;;;;;;2.60;0.60;;;;;;;7.11;51.77;96659.73;115567;1193;24388;-89
2021/10/23 01:02:37;;;;;;;3.90;1.00;;;;;;;7.15;51.74;96664.75;115517;1194;26932;-88
2021/10/23 01:05:07;;;;;;;1.10;0.80;;;;;;;7.18;51.81;96665.50;115514;1198;37056;-88
2021/10/23 01:07:37;;;;;;;2.60;0.70;;;;;;;7.22;51.80;96666.28;115555;1198;26213;-89
2021/10/23 01:10:09;;;;;;;2.60;1.30;;;;;;;7.24;51.97;96655.73;115561;1199;24239;-88
2021/10/23 01:12:41;;;;;;;3.60;1.20;;;;;;;7.24;51.89;96653.47;115593;1198;25269;-88
2021/10/23 01:15:22;;;;;;;3.00;1.10;;;;;;;7.22;52.02;96652.46;115559;1198;27879;-89
2021/10/23 01:17:49;;;;;;;;;;;;;;;7.20;52.22;96646.17;115333;1199;24340;-87
2021/10/23 01:20:18;;;;;;;2.60;0.90;;;;;;;7.18;52.32;96654.85;115535;1198;24713;-88
2021/10/23 01:22:47;;;;;;;2.40;1.00;;;;;;;7.14;52.35;96653.09;115567;1198;27182;-89
2021/10/23 01:25:16;;;;;;;3.40;0.90;;;;;;;7.13;52.61;96654.52;115630;1198;26180;-88
2021/10/23 01:27:44;;;;;;;5.10;0.90;;;;;;;7.11;52.64;96656.45;115376;1199;25986;-88
2021/10/23 01:30:14;;;;;;;2.20;1.10;;;;;;;7.10;52.80;96661.41;115436;1199;27418;-89
2021/10/23 01:32:41;;;;;;;3.80;1.20;;;;;;;7.11;52.99;96654.13;115392;1198;25997;-88
2021/10/23 01:35:11;;;;;;;2.50;0.80;;;;;;;7.12;53.00;96665.46;115569;1198;26472;-87
2021/10/23 01:37:40;;;;;;;2.60;0.80;;;;;;;7.15;53.10;96675.19;115565;1198;25394;-88
2021/10/23 01:40:16;;;;;;;3.10;1.00;;;;;;;7.19;53.07;96686.34;115282;1193;30271;-88
2021/10/23 01:42:44;;;;;;;1.60;0.90;;;;;;;7.22;52.90;96685.48;115334;1198;25977;-89
2021/10/23 01:45:13;;;;;;;2.80;1.20;;;;;;;7.24;53.18;96690.96;115434;1198;26153;-89
2021/10/23 01:47:41;;;;;;;7.60;1.10;;;;;;;7.25;53.04;96691.49;115458;1199;25714;-89
2021/10/23 01:50:15;;;;;;;4.70;1.10;;;;;;;7.25;53.12;96699.77;115402;1199;29910;-89
2021/10/23 01:52:43;;;;;;;5.90;1.20;;;;;;;7.26;53.09;96700.15;115418;1199;25265;-88
2021/10/23 01:55:13;;;;;;;2.30;1.10;;;;;;;7.27;53.27;96701.89;115426;1199;42665;-88
2021/10/23 01:57:41;;;;;;;1.90;0.90;;;;;;;7.29;53.19;96710.45;115390;1199;27336;-88
2021/10/23 02:00:12;;;;;;;2.60;0.90;;;;;;;7.29;53.25;96710.86;115448;1184;27021;-87
2021/10/23 02:02:41;;;;;;;1.40;0.70;;;;;;;7.30;53.30;96715.67;115255;1198;25309;-88
2021/10/23 02:05:10;;;;;;;2.80;1.00;;;;;;;7.29;53.41;96718.98;115551;1198;30079;-88
2021/10/23 02:07:38;;;;;;;2.60;0.90;;;;;;;7.29;53.30;96725.85;115575;1199;25803;-89
2021/10/23 02:10:08;;;;;;;3.40;1.00;;;;;;;7.30;53.39;96735.02;115153;1200;26220;-89
2021/10/23 02:12:37;;;;;;;3.30;0.90;;;;;;;7.30;53.43;96739.98;115459;1199;25778;-88
2021/10/23 02:15:06;;;;;;;3.20;0.80;;;;;;;7.30;53.67;96739.66;115534;1199;25576;-88
2021/10/23 02:17:35;;;;;;;2.90;1.00;;;;;;;7.28;53.72;96736.86;115438;1199;26741;-89
2021/10/23 02:20:04;;;;;;;2.80;0.90;;;;;;;7.25;53.67;96742.39;115435;1199;25036;-88
2021/10/23 02:22:32;;;;;;;3.60;0.80;;;;;;;7.22;54.02;96750.48;115460;1199;25165;-88
2021/10/23 02:25:01;;;;;;;1.90;0.70;;;;;;;7.21;53.85;96756.49;115428;1199;27197;-89
2021/10/23 02:27:28;;;;;;;2.30;0.70;;;;;;;7.20;54.06;96754.02;115551;1198;40836;-89
2021/10/23 02:29:56;;;;;;;3.00;0.80;;;;;;;7.20;54.51;96750.06;115525;1192;25134;-89
2021/10/23 02:32:24;;;;;;;2.20;0.90;;;;;;;7.22;54.51;96750.48;115523;1192;27539;-89
2021/10/23 02:34:52;;;;;;;2.70;1.10;;;;;;;7.23;54.65;96755.98;115573;1197;24189;-89
2021/10/23 02:37:20;;;;;;;1.30;0.50;;;;;;;7.24;54.66;96763.27;115549;1192;25158;-87
2021/10/23 02:39:48;;;;;;;3.20;1.00;;;;;;;7.24;54.69;96762.05;115519;1193;27972;-89
2021/10/23 02:42:16;;;;;;;3.70;1.20;;;;;;;7.25;54.71;96764.43;115589;1199;23367;-89
2021/10/23 02:44:45;;;;;;;3.10;0.80;;;;;;;7.26;54.86;96765.59;115311;1199;24960;-89
2021/10/23 02:47:13;;;;;;;1.50;0.80;;;;;;;7.27;54.67;96766.13;115577;1198;24877;-88
2021/10/23 02:49:40;;;;;;;2.50;1.20;;;;;;;7.27;55.07;96772.24;115441;1192;26155;-88
2021/10/23 02:52:09;;;;;;;3.50;1.20;;;;;;;7.27;55.36;96770.73;115572;1198;23926;-89
2021/10/23 02:54:37;;;;;;;2.50;0.80;;;;;;;7.27;55.46;96770.66;115528;1198;24495;-88
2021/10/23 02:57:05;;;;;;;2.20;0.90;;;;;;;7.28;55.63;96775.10;115518;1198;25484;-89
2021/10/23 02:59:33;;;;;;;1.30;0.70;;;;;;;7.28;55.63;96787.70;115537;1199;29671;-89
2021/10/23 03:02:01;;;;;;;2.10;0.90;;;;;;;7.29;55.48;96788.29;115581;1199;26389;-88
2021/10/23 03:04:29;;;;;;;4.20;1.40;;;;;;;7.30;55.68;96794.05;115528;1199;28151;-89
2021/10/23 03:06:57;;;;;;;1.60;1.00;;;;;;;7.30;56.17;96785.86;115464;1199;24024;-89
2021/10/23 03:09:25;;;;;;;2.60;1.00;;;;;;;7.29;56.23;96786.39;115533;1198;26879;-89
2021/10/23 03:11:53;;;;;;;2.60;1.00;;;;;;;7.28;56.39;96802.63;115516;1198;27683;-88
2021/10/23 03:14:21;;;;;;;1.70;1.00;;;;;;;7.27;56.86;96791.39;115563;1199;26491;-89
2021/10/23 03:16:49;;;;;;;3.00;1.00;;;;;;;7.24;56.90;96820.31;115597;1199;24629;-89
2021/10/23 03:19:17;;;;;;;2.00;0.90;;;;;;;7.21;57.09;96825.00;115427;1199;24136;-88
2021/10/23 03:21:45;;;;;;;3.40;1.30;;;;;;;7.19;57.29;96828.35;115460;1193;39114;-89
2021/10/23 03:24:13;;;;;;;2.60;1.30;;;;;;;7.14;57.25;96835.58;115614;1198;26038;-89
2021/10/23 03:26:41;;;;;;;5.10;1.10;;;;;;;7.09;57.73;96840.97;115549;1198;24910;-88
2021/10/23 03:29:09;;;;;;;1.20;0.70;;;;;;;6.99;58.23;96834.13;115530;1176;29668;-88
2021/10/23 03:31:37;;;;;;;1.10;0.70;;;;;;;6.89;58.75;96840.52;115586;1192;26000;-87
2021/10/23 03:34:05;;;;;;;1.70;1.10;;;;;;;6.79;58.85;96846.79;115491;1199;25376;-87
2021/10/23 03:36:33;;;;;;;3.40;1.10;;;;;;;6.69;59.02;96845.37;115469;1198;27562;-88
2021/10/23 03:39:01;;;;;;;2.90;1.30;;;;;;;6.61;59.15;96862.83;115629;1199;25731;-88
2021/10/23 03:41:29;;;;;;;2.60;1.40;;;;;;;6.54;59.11;96873.80;115539;1197;26739;-88
2021/10/23 03:43:57;;;;;;;1.80;1.20;;;;;;;6.46;58.94;96870.92;115481;1199;34480;-87
2021/10/23 03:46:25;;;;;;;2.10;0.70;;;;;;;6.38;59.25;96874.56;115423;1198;25169;-88
2021/10/23 03:48:53;;;;;;;3.60;1.30;;;;;;;6.32;59.15;96885.95;115443;1199;27637;-89
2021/10/23 03:51:21;;;;;;;2.60;1.00;;;;;;;6.26;59.52;96883.14;115448;1199;27737;-88
2021/10/23 03:53:49;;;;;;;3.70;1.20;;;;;;;6.20;59.41;96887.28;115449;1199;24828;-89
2021/10/23 03:56:16;;;;;;;2.50;1.30;;;;;;;6.15;59.43;96890.31;115492;1192;25489;-88
2021/10/23 03:58:44;;;;;;;3.10;1.00;;;;;;;6.09;59.58;96889.71;115552;1198;45270;-88
2021/10/23 04:01:12;;;;;;;2.40;1.20;;;;;;;6.05;59.27;96897.06;115563;1199;24923;-88
2021/10/23 04:03:40;;;;;;;2.30;0.90;;;;;;;6.01;59.28;96895.38;115468;1194;27504;-88
2021/10/23 04:06:08;;;;;;;4.20;1.20;;;;;;;5.96;59.20;96897.64;115436;1198;26830;-89
2021/10/23 04:08:37;;;;;;;2.50;1.00;;;;;;;5.93;59.42;96896.29;115427;1199;24771;-88
2021/10/23 04:11:05;;;;;;;3.40;1.30;;;;;;;5.89;59.42;96898.03;115430;1199;24571;-87
2021/10/23 04:13:33;;;;;;;1.60;0.90;;;;;;;5.87;59.39;96898.57;115531;1198;27443;-88
2021/10/23 04:16:00;;;;;;;1.60;0.70;;;;;;;5.84;59.21;96904.48;115385;1199;27360;-88
2021/10/23 04:18:28;;;;;;;2.30;0.80;;;;;;;5.81;59.12;96907.13;115336;1199;26947;-88
2021/10/23 04:20:57;;;;;;;2.60;1.20;;;;;;;5.77;59.28;96908.55;115526;1193;24464;-88
2021/10/23 04:23:25;;;;;;;1.90;0.90;;;;;;;5.74;59.20;96913.22;115512;1199;25175;-87
2021/10/23 04:25:53;;;;;;;2.90;1.20;;;;;;;5.72;59.28;96914.90;115543;1198;24404;-88
2021/10/23 04:28:21;;;;;;;1.60;0.70;;;;;;;5.69;58.86;96923.91;115513;1198;26932;-87
2021/10/23 04:30:49;;;;;;;3.30;1.00;;;;;;;5.66;58.95;96932.61;115560;1199;24653;-87
2021/10/23 04:33:18;;;;;;;5.00;1.40;;;;;;;5.62;59.14;96940.55;115491;1199;24398;-88
2021/10/23 04:35:46;;;;;;;2.20;1.00;;;;;;;5.59;59.18;96941.63;115489;1199;24751;-88
2021/10/23 04:38:13;;;;;;;3.50;0.90;;;;;;;5.56;59.12;96941.59;115497;1199;33014;-88
2021/10/23 04:40:41;;;;;;;3.90;1.20;;;;;;;5.51;59.19;96942.58;115490;1198;26162;-88
2021/10/23 04:43:09;;;;;;;2.30;0.60;;;;;;;5.49;59.41;96935.63;115502;1199;27206;-87
2021/10/23 04:45:39;;;;;;;3.80;1.30;;;;;;;5.46;59.40;96930.67;115394;1199;26706;-88
2021/10/23 04:48:08;;;;;;;1.40;0.60;;;;;;;5.44;59.87;96935.75;115253;1193;26998;-88
2021/10/23 04:50:36;;;;;;;3.40;0.90;;;;;;;5.42;59.87;96939.88;115509;1198;27790;-89
2021/10/23 04:53:04;;;;;;;1.60;0.80;;;;;;;5.38;59.82;96942.08;115538;1198;33323;-88
2021/10/23 04:55:32;;;;;;;1.50;0.80;;;;;;;5.36;60.26;96938.11;115544;1198;24334;-87
2021/10/23 04:58:00;;;;;;;3.10;0.70;;;;;;;5.32;60.19;96942.02;115507;1199;28045;-87
2021/10/23 05:00:28;;;;;;;1.30;0.80;;;;;;;5.29;60.63;96945.61;115486;1199;26815;-88
2021/10/23 05:02:56;;;;;;;4.30;1.10;;;;;;;5.28;60.61;96953.30;115479;1198;27756;-89
2021/10/23 05:05:23;;;;;;;4.20;0.80;;;;;;;5.25;60.60;96953.11;115502;1199;24674;-89
2021/10/23 05:07:51;;;;;;;4.10;1.00;;;;;;;5.24;60.91;96954.67;115440;1192;25510;-88
2021/10/23 05:10:19;;;;;;;7.40;1.00;;;;;;;5.23;61.03;96958.17;115460;1199;41573;-88
2021/10/23 05:12:47;;;;;;;2.30;0.80;;;;;;;5.20;61.21;96956.48;115439;1199;27521;-89
2021/10/23 05:15:15;;;;;;;1.70;0.80;;;;;;;5.21;61.45;96958.23;115512;1199;24685;-88
2021/10/23 05:17:43;;;;;;;1.60;1.10;;;;;;;5.21;61.30;96969.34;115450;1199;27445;-88
2021/10/23 05:20:12;;;;;;;1.00;0.60;;;;;;;5.21;61.37;96973.54;115380;1199;28127;-88
2021/10/23 05:22:40;;;;;;;2.80;0.90;;;;;;;5.21;61.26;96981.80;115398;1199;26245;-88
2021/10/23 05:25:09;;;;;;;2.40;0.80;;;;;;;5.24;61.37;96986.98;115390;1199;29193;-88
2021/10/23 05:27:40;;;;;;;1.10;0.60;;;;;;;5.28;61.33;96994.63;115419;1192;25571;-88
2021/10/23 05:30:09;;;;;;;2.70;0.90;;;;;;;5.30;61.38;96993.39;115478;1198;26963;-88
2021/10/23 05:32:37;;;;;;;0.50;0.50;;;;;;;5.31;61.42;96998.05;115429;1199;35403;-89
2021/10/23 05:35:07;;;;;;;1.80;0.60;;;;;;;5.34;61.46;97000.88;115397;1199;24492;-89
2021/10/23 05:37:35;;;;;;;3.60;0.90;;;;;;;5.35;61.79;96992.68;115370;1199;27419;-88
2021/10/23 05:40:05;;;;;;;2.90;0.90;;;;;;;5.38;62.06;97003.19;115268;1200;24180;-88
2021/10/23 05:42:33;;;;;;;1.70;0.80;;;;;;;5.45;61.85;97006.20;115301;1200;30656;-87
2021/10/23 05:45:01;;;;;;;0.70;0.70;;;;;;;5.56;61.70;97005.98;115396;1199;28889;-87
2021/10/23 05:47:30;;;;;;;2.10;1.00;;;;;;;5.56;61.62;97010.55;115518;1198;25508;-88
2021/10/23 05:49:58;;;;;;;5.80;1.10;;;;;;;5.85;61.39;97013.48;115379;1199;25459;-88
2021/10/23 05:52:26;;;;;;;2.70;0.90;;;;;;;5.89;60.93;97010.14;115435;1198;26271;-88
2021/10/23 05:54:55;;;;;;;2.40;0.80;;;;;;;5.81;60.96;97014.41;115419;1198;26495;-87
2021/10/23 05:57:23;;;;;;;5.60;1.10;;;;;;;5.78;61.02;97017.60;115433;1198;24774;-87
2021/10/23 05:59:51;;;;;;;3.90;0.90;;;;;;;5.71;61.14;97017.55;115441;1199;26769;-88
2021/10/23 06:02:23;;;;;;;2.80;0.80;;;;;;;5.72;61.24;97020.02;115543;1198;25069;-89
2021/10/23 06:04:54;;;;;;;4.10;0.90;;;;;;;5.67;61.36;97016.84;115474;1199;42428;-87
2021/10/23 06:07:24;;;;;;;1.70;0.80;;;;;;;5.65;61.32;97026.08;115363;1199;29339;-87
2021/10/23 06:09:53;;;;;;;4.40;0.90;;;;;;;5.69;61.50;97036.23;115394;1199;26437;-87
2021/10/23 06:12:22;;;;;;;3.00;0.80;;;;;;;5.68;61.44;97040.48;115410;1195;30039;-87
2021/10/23 06:14:50;;;;;;;2.70;0.90;;;;;;;5.67;61.43;97046.73;115557;1198;26672;-88
2021/10/23 06:17:18;;;;;;;1.90;0.80;;;;;;;5.69;61.36;97050.23;115562;1198;26603;-88
2021/10/23 06:19:46;;;;;;;5.00;1.00;;;;;;;5.72;61.44;97045.22;115492;1192;25230;-88
2021/10/23 06:22:15;;;;;;;1.70;0.70;;;;;;;5.73;61.39;97056.14;115433;1199;25452;-87
2021/10/23 06:24:43;;;;;;;1.90;0.80;;;;;;;5.80;61.44;97057.59;115445;1198;26333;-88
2021/10/23 06:27:12;;;;;;;2.40;0.90;;;;;;;5.80;61.40;97066.16;115289;1199;26637;-88
2021/10/23 06:29:40;;;;;;;2.10;1.00;;;;;;;5.80;61.28;97076.89;115472;1198;31371;-88
2021/10/23 06:32:08;;;;;;;2.30;1.00;;;;;;;5.86;61.33;97076.05;115421;1192;28498;-88
2021/10/23 06:34:40;;;;;;;1.20;0.90;;;;;;;5.93;61.10;97085.85;115412;1191;29532;-88
2021/10/23 06:37:09;;;;;;;2.40;0.90;;;;;;;5.98;60.99;97092.18;115402;1199;30661;-88
2021/10/23 06:39:38;;;;;;;2.80;0.80;;;;;;;6.06;61.07;97097.85;115430;1199;28808;-88
2021/10/23 06:42:06;;;;;;;5.00;1.10;;;;;;;6.23;60.80;97101.41;115403;1199;28436;-88
2021/10/23 06:44:35;;;;;;;4.70;0.90;;;;;;;6.38;60.29;97098.77;115394;1199;28980;-88
2021/10/23 06:47:03;;;;;;;2.00;0.80;;;;;;;6.39;60.10;97105.20;115407;1198;28390;-88
2021/10/23 06:49:31;;;;;;;3.70;1.10;;;;;;;6.59;59.93;97101.13;115452;1199;25445;-87
2021/10/23 06:51:59;;;;;;;2.70;1.00;;;;;;;6.75;59.51;97114.23;115439;1199;27533;-87
2021/10/23 06:54:27;;;;;;;1.80;1.00;;;;;;;7.17;58.88;97108.39;115456;1199;23865;-88
2021/10/23 06:56:55;;;;;;;4.00;0.90;;;;;;;7.11;58.26;97109.52;115425;1199;27422;-87
2021/10/23 06:59:24;;;;;;;3.30;1.00;;;;;;;6.92;58.30;97106.16;115368;1199;28388;-87
2021/10/23 07:01:52;;;;;;;1.90;1.00;;;;;;;7.11;58.34;97117.13;115469;1199;24210;-87
2021/10/23 07:04:20;;;;;;;3.90;1.00;;;;;;;7.44;58.21;97116.64;115495;1199;32133;-87
2021/10/23 07:06:48;;;;;;;4.20;1.10;;;;;;;7.97;56.53;97110.16;115493;1199;28031;-87
2021/10/23 07:09:17;;;;;;;2.00;0.70;;;;;;;8.06;56.57;97115.59;115501;1199;27072;-88
2021/10/23 07:11:46;;;;;;;1.40;0.60;;;;;;;8.50;56.14;97119.44;115484;1198;31948;-88
2021/10/23 07:14:14;;;;;;;4.10;1.10;;;;;;;8.48;54.61;97117.05;115376;1199;27636;-88
2021/10/23 07:16:42;;;;;;;3.80;1.10;;;;;;;8.20;55.16;97123.12;115416;1184;25394;-87
2021/10/23 07:19:10;;;;;;;6.30;1.20;;;;;;;8.71;54.74;97118.19;115397;1199;27498;-88
2021/10/23 07:21:38;;;;;;;3.80;0.90;;;;;;;8.74;54.07;97119.27;115439;1199;24130;-87
2021/10/23 07:24:07;;;;;;;3.40;1.10;;;;;;;8.64;53.77;97114.29;115426;1199;24005;-88
2021/10/23 07:26:35;;;;;;;3.40;1.20;;;;;;;8.41;53.74;97128.04;115451;1199;27116;-88
2021/10/23 07:29:04;;;;;;;2.50;0.70;;;;;;;8.76;54.50;97123.14;115409;1199;30836;-88
2021/10/23 07:31:32;;;;;;;2.40;0.80;;;;;;;9.47;53.20;97127.54;115391;1199;36276;-88
2021/10/23 07:34:01;;;;;;;1.90;0.70;;;;;;;9.41;51.97;97132.90;115429;1193;24770;-87
2021/10/23 07:36:29;;;;;;;4.80;1.10;;;;;;;9.50;52.04;97132.41;115447;1199;24327;-86
2021/10/23 07:38:57;;;;;;;3.10;1.00;;;;;;;9.49;51.86;97136.01;115428;1198;35324;-88
2021/10/23 07:41:26;;;;;;;2.50;0.90;;;;;;;9.03;51.73;97129.51;115466;1192;27933;-88
2021/10/23 07:43:53;;;;;;;3.00;1.10;;;;;;;8.92;52.08;97138.80;115335;1199;27285;-89
2021/10/23 07:46:22;;;;;;;4.00;1.10;;;;;;;9.10;51.77;97131.98;115443;1199;24858;-87
2021/10/23 07:48:50;;;;;;;3.60;0.80;;;;;;;9.01;51.52;97137.43;115539;1198;25277;-86
2021/10/23 07:51:19;;;;;;;2.70;1.10;;;;;;;9.19;51.23;97133.63;115507;1192;26974;-86
2021/10/23 07:53:48;;;;;;;3.90;0.90;;;;;;;9.25;50.91;97137.89;115544;1198;24833;-87
2021/10/23 07:56:16;;;;;;;2.70;0.90;;;;;;;9.45;51.31;97131.02;115541;1198;23981;-87
2021/10/23 07:58:44;;;;;;;2.60;0.90;;;;;;;9.39;49.43;97130.17;115455;1198;26610;-88
2021/10/23 08:01:12;;;;;;;4.80;1.20;;;;;;;9.00;50.29;97132.34;115479;1199;25744;-87
2021/10/23 08:03:41;;;;;;;2.30;0.80;;;;;;;8.89;50.38;97136.88;115481;1198;24302;-87
2021/10/23 08:06:09;;;;;;;1.40;0.60;;;;;;;8.88;50.52;97139.47;115476;1199;28104;-88
2021/10/23 08:08:37;;;;;;;3.00;1.00;;;;;;;9.04;49.67;97141.15;115307;1199;23598;-87
2021/10/23 08:11:05;;;;;;;5.20;1.30;;;;;;;8.82;49.46;97146.13;115524;1198;24540;-88
2021/10/23 08:13:33;;;;;;;4.00;1.30;;;;;;;8.99;49.92;97148.48;115418;1198;26335;-88
2021/10/23 08:16:01;;;;;;;1.50;0.70;;;;;;;9.12;49.28;97148.40;115324;1198;27773;-88
2021/10/23 08:18:29;;;;;;;3.10;1.10;;;;;;;9.12;49.71;97155.91;115432;1198;24926;-88
2021/10/23 08:20:58;;;;;;;5.10;1.60;;;;;;;9.26;49.06;97156.88;115482;1198;33914;-88
2021/10/23 08:23:27;;;;;;;2.60;0.80;;;;;;;9.28;48.51;97145.48;115467;1198;24748;-87
2021/10/23 08:25:55;;;;;;;3.30;1.00;;;;;;;8.99;48.33;97161.48;115475;1192;24800;-87
2021/10/23 08:28:24;;;;;;;2.00;1.10;;;;;;;8.83;49.30;97169.45;115451;1192;26064;-86
2021/10/23 08:30:53;;;;;;;7.60;1.20;;;;;;;8.93;49.30;97161.92;115465;1199;28084;-86
2021/10/23 08:33:21;;;;;;;6.20;1.40;;;;;;;8.86;49.55;97167.27;115441;1199;27737;-85
2021/10/23 08:35:49;;;;;;;3.30;0.90;;;;;;;8.66;49.33;97163.13;115539;1198;24511;-87
2021/10/23 08:38:17;;;;;;;1.00;0.70;;;;;;;8.40;49.85;97175.33;115439;1199;24608;-87
2021/10/23 08:40:45;;;;;;;5.20;1.40;;;;;;;8.29;49.94;97166.73;115485;1198;25521;-87
2021/10/23 08:43:16;;;;;;;4.70;1.40;;;;;;;8.17;50.64;97175.17;115421;1199;25265;-87
2021/10/23 08:45:45;;;;;;;4.90;1.40;;;;;;;8.13;50.86;97179.24;115358;1200;25229;-87
2021/10/23 08:48:14;;;;;;;4.10;1.00;;;;;;;8.21;50.91;97187.16;115439;1199;28069;-87
2021/10/23 08:50:42;;;;;;;1.80;0.90;;;;;;;8.21;50.84;97183.30;115440;1199;25718;-88
2021/10/23 08:53:11;;;;;;;3.80;0.90;;;;;;;8.11;50.81;97191.95;115448;1199;27094;-87
2021/10/23 08:55:39;;;;;;;4.40;1.20;;;;;;;7.97;51.34;97185.20;115455;1198;24724;-87
2021/10/23 08:58:10;;;;;;;5.10;1.70;;;;;;;7.85;51.66;97180.16;115405;1199;28941;-87
2021/10/23 09:00:38;;;;;;;4.00;1.30;;;;;;;7.72;52.26;97191.23;115376;1199;26401;-88
2021/10/23 09:03:06;;;;;;;6.20;1.20;;;;;;;7.64;52.70;97192.73;115388;1199;25657;-87
2021/10/23 09:05:35;;;;;;;3.30;1.20;;;;;;;7.69;52.98;97197.64;115458;1198;24364;-87
2021/10/23 09:08:14;;;;;;;6.00;1.50;;;;;;;7.84;53.21;97192.28;115444;1198;25672;-87
2021/10/23 09:10:48;;;;;;;2.30;1.00;;;;;;;8.05;52.90;97195.80;115413;1186;27653;-88
2021/10/23 09:13:28;;;;;;;3.50;1.00;;;;;;;8.13;52.52;97192.92;115526;1199;24687;-87
2021/10/23 09:15:57;;;;;;;4.50;0.90;;;;;;;7.97;52.19;97209.13;115473;1192;24685;-88
2021/10/23 09:18:43;;;;;;;5.70;1.50;;;;;;;7.88;52.81;97213.45;115476;1199;23978;-87
2021/10/23 09:21:20;;;;;;;5.00;1.20;;;;;;;7.86;52.89;97214.16;115484;1194;26541;-88
2021/10/23 09:23:49;;;;;;;3.80;1.40;;;;;;;7.78;53.04;97215.98;115535;1198;26691;-88
2021/10/23 09:26:33;;;;;;;6.00;1.40;;;;;;;7.83;52.98;97220.09;115555;1198;25584;-87
2021/10/23 09:29:18;;;;;;;3.20;1.10;;;;;;;7.88;52.91;97220.52;115438;1199;24333;-88
2021/10/23 09:31:49;;;;;;;4.30;0.90;;;;;;;7.82;52.92;97217.81;115538;1193;23904;-87
2021/10/23 09:34:18;;;;;;;1.40;0.90;;;;;;;7.84;52.90;97222.64;115406;1194;25899;-88
2021/10/23 09:36:58;;;;;;;3.00;1.20;;;;;;;7.84;52.98;97223.70;115575;1199;22602;-87
2021/10/23 09:39:30;;;;;;;5.80;1.40;;;;;;;7.82;53.08;97219.23;115517;1198;27489;-87
2021/10/23 09:42:14;;;;;;;3.00;1.20;;;;;;;7.78;53.19;97216.83;115507;1198;47293;-86
2021/10/23 09:45:02;;;;;;;2.70;0.70;;;;;;;7.80;52.99;97220.63;115477;1199;25455;-87
2021/10/23 09:47:35;;;;;;;4.20;1.20;;;;;;;7.84;52.98;97218.63;115397;1199;25167;-88
2021/10/23 09:50:21;;;;;;;6.40;1.20;;;;;;;7.84;53.22;97217.46;115537;1198;23362;-87
2021/10/23 09:53:04;;;;;;;7.80;2.10;;;;;;;7.85;53.39;97222.23;115452;1199;23469;-88
2021/10/23 09:55:52;;;;;;;14.60;6.70;;;;;;;7.87;53.30;97218.83;115490;1199;26137;-87
2021/10/23 09:58:21;;;;;;;4.50;1.60;;;;;;;8.13;53.03;97218.44;115530;1199;34527;-87
2021/10/23 10:00:51;;;;;;;25.90;9.00;;;;;;;8.36;53.04;97206.23;115507;1198;26450;-87
2021/10/23 10:03:20;;;;;;;32.90;12.90;;;;;;;8.45;52.80;97209.68;115551;1198;26193;-88
2021/10/23 10:05:56;;;;;;;48.50;18.10;;;;;;;8.42;52.44;97210.38;115511;1199;33578;-87
2021/10/23 10:08:25;;;;;;;29.60;13.50;;;;;;;8.36;52.61;97217.61;115491;1198;25508;-87
2021/10/23 10:10:55;;;;;;;11.50;4.80;;;;;;;8.38;52.53;97215.77;115466;1198;27782;-88
2021/10/23 10:13:26;;;;;;;6.30;2.60;;;;;;;8.33;52.00;97219.20;115450;1199;25279;-88
2021/10/23 10:15:56;;;;;;;5.20;1.60;;;;;;;8.26;51.92;97214.56;115505;1198;27087;-87
2021/10/23 10:18:25;;;;;;;11.00;5.00;;;;;;;8.12;51.96;97227.20;115480;1198;26636;-88
2021/10/23 10:20:55;;;;;;;3.10;1.10;;;;;;;8.02;51.93;97232.63;115476;1199;27036;-87
2021/10/23 10:23:33;;;;;;;5.00;1.50;;;;;;;8.12;51.99;97230.95;115478;1198;24671;-86
2021/10/23 10:26:27;;;;;;;12.10;7.50;;;;;;;8.31;51.77;97229.10;115432;1199;27977;-88
2021/10/23 10:29:23;;;;;;;6.10;1.50;;;;;;;8.44;51.43;97227.80;115419;1199;26768;-88
2021/10/23 10:31:55;;;;;;;7.90;2.80;;;;;;;8.51;51.41;97231.40;115325;1200;26025;-87
2021/10/23 10:34:58;;;;;;;7.00;1.90;;;;;;;8.69;51.56;97234.90;115436;1199;24470;-88
2021/10/23 10:37:43;;;;;;;7.70;1.90;;;;;;;8.81;50.59;97231.67;115508;1192;27715;-88
2021/10/23 10:40:43;;;;;;;3.40;1.10;;;;;;;8.63;50.13;97233.11;115423;1199;25188;-88
2021/10/23 10:43:14;;;;;;;3.60;0.80;;;;;;;8.47;50.43;97238.01;115463;1199;27391;-88
2021/10/23 10:45:56;;;;;;;5.20;1.30;;;;;;;8.34;50.15;97242.63;115494;1199;24500;-88
2021/10/23 10:48:40;;;;;;;6.20;1.40;;;;;;;8.24;50.54;97249.69;115495;1199;26795;-88
2021/10/23 10:51:23;;;;;;;2.50;1.10;;;;;;;8.22;50.89;97246.70;115426;1192;25126;-88
2021/10/23 10:54:09;;;;;;;4.00;1.20;;;;;;;8.20;51.11;97255.61;115426;1199;25412;-86
2021/10/23 10:56:49;;;;;;;4.00;1.40;;;;;;;8.18;51.19;97260.19;115414;1199;25051;-87
2021/10/23 10:59:35;;;;;;;;;;;;;;;8.17;51.61;97267.24;115393;1200;23140;-87
2021/10/23 11:02:07;;;;;;;5.40;1.40;;;;;;;8.22;51.33;97261.34;115395;1199;25025;-88
2021/10/23 11:05:16;;;;;;;5.80;1.40;;;;;;;8.22;51.00;97257.48;115414;1192;26178;-88
2021/10/23 11:08:10;;;;;;;7.80;1.70;;;;;;;8.21;50.64;97265.71;115432;1193;26986;-89
2021/10/23 11:11:02;;;;;;;7.80;1.50;;;;;;;8.24;50.97;97270.27;115380;1199;29985;-88
2021/10/23 11:13:31;;;;;;;8.80;2.20;;;;;;;8.23;50.41;97263.88;115355;1193;28137;-87
2021/10/23 11:15:59;;;;;;;2.20;1.40;;;;;;;8.19;50.60;97270.71;115377;1192;31152;-87
2021/10/23 11:18:28;;;;;;;6.20;1.60;;;;;;;8.17;50.70;97267.58;115461;1198;35921;-87
2021/10/23 11:20:58;;;;;;;6.30;1.60;;;;;;;8.19;51.04;97270.02;115488;1198;26869;-87
2021/10/23 11:23:27;;;;;;;3.80;1.20;;;;;;;8.30;50.93;97262.91;115439;1198;32405;-88
2021/10/23 11:26:04;;;;;;;4.30;1.40;;;;;;;8.38;50.55;97263.34;115453;1198;38038;-86
2021/10/23 11:28:32;;;;;;;10.70;2.00;;;;;;;8.45;50.65;97262.26;115375;1192;48199;-86
2021/10/23 11:31:01;;;;;;;4.00;2.00;;;;;;;8.57;50.40;97260.70;115382;1199;43553;-87
2021/10/23 11:33:30;;;;;;;7.10;2.10;;;;;;;8.66;50.15;97254.33;115453;1199;26453;-87
2021/10/23 11:36:12;;;;;;;4.70;1.70;;;;;;;8.70;49.28;97254.63;115403;1199;27147;-87
2021/10/23 11:38:40;;;;;;;4.10;1.40;;;;;;;8.77;48.89;97257.61;115410;1199;32074;-87
2021/10/23 11:41:08;;;;;;;4.40;1.20;;;;;;;8.82;49.16;97251.19;115287;1199;83737;-89
2021/10/23 11:43:38;;;;;;;4.00;1.40;;;;;;;8.87;49.06;97252.41;115348;1193;38311;-86
2021/10/23 11:46:12;;;;;;;23.40;7.60;;;;;;;9.00;49.19;97252.41;115441;1198;38306;-87
2021/10/23 11:48:40;;;;;;;13.30;4.70;;;;;;;9.16;48.70;97255.72;115564;1198;27871;-88